sensor_id;sensor_type;location;lat;lon;timestamp;P1;durP1;ratioP1;P2;durP2;ratioP2
46835;SDS011;32573;51.290;6.926;2024-01-16T00:00:15;4.93;;;2.90;;
46835;SDS011;32573;51.290;6.926;2024-01-16T00:02:43;8.00;;;3.80;;
46835;SDS011;32573;51.290;6.926;2024-01-16T00:05:12;7.47;;;3.22;;
46835;SDS011;32573;51.290;6.926;2024-01-16T00:07:40;5.95;;;3.10;;
46835;SDS011;32573;51.290;6.926;2024-01-16T00:10:08;5.63;;;2.90;;
46835;SDS011;32573;51.290;6.926;2024-01-16T00:12:37;6.20;;;3.30;;
46835;SDS011;32573;51.290;6.926;2024-01-16T00:15:07;5.93;;;2.90;;
46835;SDS011;32573;51.290;6.926;2024-01-16T00:17:38;7.00;;;3.55;;
46835;SDS011;32573;51.290;6.926;2024-01-16T00:20:06;5.50;;;2.60;;
46835;SDS011;32573;51.290;6.926;2024-01-16T00:22:36;7.80;;;3.67;;
46835;SDS011;32573;51.290;6.926;2024-01-16T00:25:05;5.60;;;3.03;;
46835;SDS011;32573;51.290;6.926;2024-01-16T00:27:34;6.03;;;3.17;;
46835;SDS011;32573;51.290;6.926;2024-01-16T00:30:02;8.45;;;3.35;;
46835;SDS011;32573;51.290;6.926;2024-01-16T00:32:32;6.13;;;2.90;;
46835;SDS011;32573;51.290;6.926;2024-01-16T00:35:04;5.65;;;2.80;;
46835;SDS011;32573;51.290;6.926;2024-01-16T00:37:33;4.40;;;2.17;;
46835;SDS011;32573;51.290;6.926;2024-01-16T00:40:02;5.43;;;2.38;;
46835;SDS011;32573;51.290;6.926;2024-01-16T00:42:31;5.10;;;2.28;;
46835;SDS011;32573;51.290;6.926;2024-01-16T00:45:00;4.45;;;2.28;;
46835;SDS011;32573;51.290;6.926;2024-01-16T00:47:28;5.38;;;1.98;;
46835;SDS011;32573;51.290;6.926;2024-01-16T00:49:57;4.28;;;2.10;;
46835;SDS011;32573;51.290;6.926;2024-01-16T00:52:28;3.88;;;2.05;;
46835;SDS011;32573;51.290;6.926;2024-01-16T00:54:56;3.90;;;1.83;;
46835;SDS011;32573;51.290;6.926;2024-01-16T00:57:25;3.50;;;2.00;;
46835;SDS011;32573;51.290;6.926;2024-01-16T00:59:53;4.63;;;2.17;;
46835;SDS011;32573;51.290;6.926;2024-01-16T01:02:22;4.15;;;1.95;;
46835;SDS011;32573;51.290;6.926;2024-01-16T01:04:50;3.60;;;1.83;;
46835;SDS011;32573;51.290;6.926;2024-01-16T01:07:18;4.90;;;1.90;;
46835;SDS011;32573;51.290;6.926;2024-01-16T01:09:48;5.38;;;2.10;;
46835;SDS011;32573;51.290;6.926;2024-01-16T01:12:16;7.05;;;2.60;;
46835;SDS011;32573;51.290;6.926;2024-01-16T01:14:45;4.57;;;2.20;;
46835;SDS011;32573;51.290;6.926;2024-01-16T01:17:13;4.05;;;2.00;;
46835;SDS011;32573;51.290;6.926;2024-01-16T01:19:42;5.18;;;2.20;;
46835;SDS011;32573;51.290;6.926;2024-01-16T01:22:10;5.85;;;2.83;;
46835;SDS011;32573;51.290;6.926;2024-01-16T01:24:39;7.55;;;2.50;;
46835;SDS011;32573;51.290;6.926;2024-01-16T01:27:08;6.95;;;3.30;;
46835;SDS011;32573;51.290;6.926;2024-01-16T01:29:37;4.90;;;2.15;;
46835;SDS011;32573;51.290;6.926;2024-01-16T01:32:05;5.88;;;2.65;;
46835;SDS011;32573;51.290;6.926;2024-01-16T01:34:34;5.30;;;2.60;;
46835;SDS011;32573;51.290;6.926;2024-01-16T01:37:02;6.13;;;2.92;;
46835;SDS011;32573;51.290;6.926;2024-01-16T01:39:31;5.82;;;2.78;;
46835;SDS011;32573;51.290;6.926;2024-01-16T01:41:59;6.80;;;3.55;;
46835;SDS011;32573;51.290;6.926;2024-01-16T01:44:29;6.55;;;2.85;;
46835;SDS011;32573;51.290;6.926;2024-01-16T01:46:58;5.85;;;3.10;;
46835;SDS011;32573;51.290;6.926;2024-01-16T01:49:26;7.20;;;3.38;;
46835;SDS011;32573;51.290;6.926;2024-01-16T01:51:55;7.25;;;3.50;;
46835;SDS011;32573;51.290;6.926;2024-01-16T01:54:24;6.75;;;3.38;;
46835;SDS011;32573;51.290;6.926;2024-01-16T01:56:54;7.82;;;4.00;;
46835;SDS011;32573;51.290;6.926;2024-01-16T01:59:23;7.25;;;3.92;;
46835;SDS011;32573;51.290;6.926;2024-01-16T02:01:54;7.53;;;3.92;;
46835;SDS011;32573;51.290;6.926;2024-01-16T02:04:23;9.30;;;4.05;;
46835;SDS011;32573;51.290;6.926;2024-01-16T02:06:54;7.80;;;3.88;;
46835;SDS011;32573;51.290;6.926;2024-01-16T02:09:23;8.73;;;3.47;;
46835;SDS011;32573;51.290;6.926;2024-01-16T02:11:52;9.00;;;4.22;;
46835;SDS011;32573;51.290;6.926;2024-01-16T02:14:20;7.78;;;4.30;;
46835;SDS011;32573;51.290;6.926;2024-01-16T02:16:48;7.00;;;3.85;;
46835;SDS011;32573;51.290;6.926;2024-01-16T02:19:19;7.63;;;3.90;;
46835;SDS011;32573;51.290;6.926;2024-01-16T02:21:48;8.13;;;3.88;;
46835;SDS011;32573;51.290;6.926;2024-01-16T02:24:19;7.28;;;4.00;;
46835;SDS011;32573;51.290;6.926;2024-01-16T02:26:47;7.88;;;3.88;;
46835;SDS011;32573;51.290;6.926;2024-01-16T02:29:16;8.68;;;4.15;;
46835;SDS011;32573;51.290;6.926;2024-01-16T02:31:44;8.02;;;4.35;;
46835;SDS011;32573;51.290;6.926;2024-01-16T02:34:13;6.85;;;3.40;;
46835;SDS011;32573;51.290;6.926;2024-01-16T02:36:41;7.50;;;3.63;;
46835;SDS011;32573;51.290;6.926;2024-01-16T02:39:10;6.28;;;3.63;;
46835;SDS011;32573;51.290;6.926;2024-01-16T02:41:40;7.57;;;4.10;;
46835;SDS011;32573;51.290;6.926;2024-01-16T02:44:08;7.72;;;4.00;;
46835;SDS011;32573;51.290;6.926;2024-01-16T02:46:37;7.35;;;3.92;;
46835;SDS011;32573;51.290;6.926;2024-01-16T02:49:06;8.68;;;3.78;;
46835;SDS011;32573;51.290;6.926;2024-01-16T02:51:35;8.32;;;3.65;;
46835;SDS011;32573;51.290;6.926;2024-01-16T02:54:04;7.68;;;4.25;;
46835;SDS011;32573;51.290;6.926;2024-01-16T02:56:34;7.45;;;4.50;;
46835;SDS011;32573;51.290;6.926;2024-01-16T02:59:03;6.47;;;3.65;;
46835;SDS011;32573;51.290;6.926;2024-01-16T03:01:32;7.97;;;4.20;;
46835;SDS011;32573;51.290;6.926;2024-01-16T03:04:01;10.80;;;4.28;;
46835;SDS011;32573;51.290;6.926;2024-01-16T03:06:29;9.13;;;4.82;;
46835;SDS011;32573;51.290;6.926;2024-01-16T03:08:58;10.80;;;4.80;;
46835;SDS011;32573;51.290;6.926;2024-01-16T03:11:26;7.43;;;3.75;;
46835;SDS011;32573;51.290;6.926;2024-01-16T03:13:58;8.50;;;3.90;;
46835;SDS011;32573;51.290;6.926;2024-01-16T03:16:28;9.13;;;4.45;;
46835;SDS011;32573;51.290;6.926;2024-01-16T03:18:57;7.13;;;3.80;;
46835;SDS011;32573;51.290;6.926;2024-01-16T03:21:25;8.43;;;4.22;;
46835;SDS011;32573;51.290;6.926;2024-01-16T03:23:54;9.00;;;4.47;;
46835;SDS011;32573;51.290;6.926;2024-01-16T03:26:23;9.35;;;5.10;;
46835;SDS011;32573;51.290;6.926;2024-01-16T03:28:51;9.10;;;4.50;;
46835;SDS011;32573;51.290;6.926;2024-01-16T03:31:20;6.78;;;3.85;;
46835;SDS011;32573;51.290;6.926;2024-01-16T03:33:50;7.50;;;3.83;;
46835;SDS011;32573;51.290;6.926;2024-01-16T03:36:18;7.22;;;3.88;;
46835;SDS011;32573;51.290;6.926;2024-01-16T03:38:47;8.60;;;4.47;;
46835;SDS011;32573;51.290;6.926;2024-01-16T03:41:15;8.27;;;4.10;;
46835;SDS011;32573;51.290;6.926;2024-01-16T03:43:43;7.80;;;4.18;;
46835;SDS011;32573;51.290;6.926;2024-01-16T03:46:12;6.70;;;3.67;;
46835;SDS011;32573;51.290;6.926;2024-01-16T03:48:41;8.30;;;4.28;;
46835;SDS011;32573;51.290;6.926;2024-01-16T03:51:10;10.52;;;4.70;;
46835;SDS011;32573;51.290;6.926;2024-01-16T03:53:42;7.97;;;4.13;;
46835;SDS011;32573;51.290;6.926;2024-01-16T03:56:10;9.35;;;4.35;;
46835;SDS011;32573;51.290;6.926;2024-01-16T03:58:39;7.50;;;3.83;;
46835;SDS011;32573;51.290;6.926;2024-01-16T04:01:08;8.23;;;4.28;;
46835;SDS011;32573;51.290;6.926;2024-01-16T04:03:37;8.23;;;4.28;;
46835;SDS011;32573;51.290;6.926;2024-01-16T04:06:15;6.70;;;3.45;;
46835;SDS011;32573;51.290;6.926;2024-01-16T04:08:44;7.28;;;4.25;;
46835;SDS011;32573;51.290;6.926;2024-01-16T04:11:13;7.32;;;3.63;;
46835;SDS011;32573;51.290;6.926;2024-01-16T04:13:42;7.50;;;3.40;;
46835;SDS011;32573;51.290;6.926;2024-01-16T04:16:11;6.28;;;3.58;;
46835;SDS011;32573;51.290;6.926;2024-01-16T04:18:41;7.63;;;4.00;;
46835;SDS011;32573;51.290;6.926;2024-01-16T04:21:10;9.13;;;3.92;;
46835;SDS011;32573;51.290;6.926;2024-01-16T04:23:40;7.22;;;3.70;;
46835;SDS011;32573;51.290;6.926;2024-01-16T04:26:09;6.88;;;3.15;;
46835;SDS011;32573;51.290;6.926;2024-01-16T04:28:37;6.28;;;3.05;;
46835;SDS011;32573;51.290;6.926;2024-01-16T04:31:06;6.10;;;3.25;;
46835;SDS011;32573;51.290;6.926;2024-01-16T04:33:34;5.85;;;2.92;;
46835;SDS011;32573;51.290;6.926;2024-01-16T04:36:03;5.80;;;2.92;;
46835;SDS011;32573;51.290;6.926;2024-01-16T04:38:31;7.05;;;3.25;;
46835;SDS011;32573;51.290;6.926;2024-01-16T04:41:02;5.78;;;3.30;;
46835;SDS011;32573;51.290;6.926;2024-01-16T04:43:30;6.40;;;3.35;;
46835;SDS011;32573;51.290;6.926;2024-01-16T04:45:59;4.70;;;2.67;;
46835;SDS011;32573;51.290;6.926;2024-01-16T04:48:30;7.60;;;3.30;;
46835;SDS011;32573;51.290;6.926;2024-01-16T04:50:58;5.68;;;2.97;;
46835;SDS011;32573;51.290;6.926;2024-01-16T04:53:27;5.18;;;3.03;;
46835;SDS011;32573;51.290;6.926;2024-01-16T04:55:55;6.47;;;2.88;;
46835;SDS011;32573;51.290;6.926;2024-01-16T04:58:25;6.35;;;2.90;;
46835;SDS011;32573;51.290;6.926;2024-01-16T05:00:54;6.22;;;3.20;;
46835;SDS011;32573;51.290;6.926;2024-01-16T05:03:23;5.22;;;2.65;;
46835;SDS011;32573;51.290;6.926;2024-01-16T05:05:51;4.35;;;2.58;;
46835;SDS011;32573;51.290;6.926;2024-01-16T05:08:20;5.53;;;2.78;;
46835;SDS011;32573;51.290;6.926;2024-01-16T05:10:49;6.13;;;2.97;;
46835;SDS011;32573;51.290;6.926;2024-01-16T05:13:18;6.28;;;2.65;;
46835;SDS011;32573;51.290;6.926;2024-01-16T05:15:47;5.60;;;2.78;;
46835;SDS011;32573;51.290;6.926;2024-01-16T05:18:16;4.93;;;2.78;;
46835;SDS011;32573;51.290;6.926;2024-01-16T05:20:44;7.88;;;2.97;;
46835;SDS011;32573;51.290;6.926;2024-01-16T05:23:13;7.07;;;3.30;;
46835;SDS011;32573;51.290;6.926;2024-01-16T05:25:41;7.28;;;4.50;;
46835;SDS011;32573;51.290;6.926;2024-01-16T05:28:09;6.28;;;3.20;;
46835;SDS011;32573;51.290;6.926;2024-01-16T05:30:38;8.15;;;4.10;;
46835;SDS011;32573;51.290;6.926;2024-01-16T05:33:07;6.28;;;3.30;;
46835;SDS011;32573;51.290;6.926;2024-01-16T05:35:36;6.78;;;3.63;;
46835;SDS011;32573;51.290;6.926;2024-01-16T05:38:04;7.20;;;3.55;;
46835;SDS011;32573;51.290;6.926;2024-01-16T05:40:33;8.35;;;3.50;;
46835;SDS011;32573;51.290;6.926;2024-01-16T05:43:02;8.00;;;3.55;;
46835;SDS011;32573;51.290;6.926;2024-01-16T05:45:31;7.55;;;3.85;;
46835;SDS011;32573;51.290;6.926;2024-01-16T05:47:59;6.20;;;3.35;;
46835;SDS011;32573;51.290;6.926;2024-01-16T05:50:29;7.07;;;3.75;;
46835;SDS011;32573;51.290;6.926;2024-01-16T05:52:58;7.38;;;3.30;;
46835;SDS011;32573;51.290;6.926;2024-01-16T05:55:26;7.50;;;3.83;;
46835;SDS011;32573;51.290;6.926;2024-01-16T05:57:55;6.95;;;3.47;;
46835;SDS011;32573;51.290;6.926;2024-01-16T06:00:24;7.03;;;3.70;;
46835;SDS011;32573;51.290;6.926;2024-01-16T06:02:52;5.88;;;3.40;;
46835;SDS011;32573;51.290;6.926;2024-01-16T06:05:21;8.02;;;3.72;;
46835;SDS011;32573;51.290;6.926;2024-01-16T06:07:51;9.20;;;3.40;;
46835;SDS011;32573;51.290;6.926;2024-01-16T06:10:20;6.25;;;3.13;;
46835;SDS011;32573;51.290;6.926;2024-01-16T06:12:48;6.45;;;3.00;;
46835;SDS011;32573;51.290;6.926;2024-01-16T06:15:16;7.18;;;3.20;;
46835;SDS011;32573;51.290;6.926;2024-01-16T06:17:45;6.32;;;3.20;;
46835;SDS011;32573;51.290;6.926;2024-01-16T06:20:13;9.45;;;3.28;;
46835;SDS011;32573;51.290;6.926;2024-01-16T06:22:42;7.80;;;2.92;;
46835;SDS011;32573;51.290;6.926;2024-01-16T06:25:11;6.18;;;2.83;;
46835;SDS011;32573;51.290;6.926;2024-01-16T06:27:40;5.47;;;2.50;;
46835;SDS011;32573;51.290;6.926;2024-01-16T06:30:09;6.07;;;2.88;;
46835;SDS011;32573;51.290;6.926;2024-01-16T06:32:38;5.72;;;2.38;;
46835;SDS011;32573;51.290;6.926;2024-01-16T06:35:07;5.53;;;2.70;;
46835;SDS011;32573;51.290;6.926;2024-01-16T06:37:36;6.28;;;2.90;;
46835;SDS011;32573;51.290;6.926;2024-01-16T06:40:04;5.47;;;2.30;;
46835;SDS011;32573;51.290;6.926;2024-01-16T06:42:34;6.43;;;2.30;;
46835;SDS011;32573;51.290;6.926;2024-01-16T06:45:04;9.27;;;2.35;;
46835;SDS011;32573;51.290;6.926;2024-01-16T06:47:33;5.78;;;2.20;;
46835;SDS011;32573;51.290;6.926;2024-01-16T06:50:02;5.38;;;2.40;;
46835;SDS011;32573;51.290;6.926;2024-01-16T06:52:31;6.07;;;2.38;;
46835;SDS011;32573;51.290;6.926;2024-01-16T06:54:59;7.20;;;2.40;;
46835;SDS011;32573;51.290;6.926;2024-01-16T06:57:27;5.68;;;2.20;;
46835;SDS011;32573;51.290;6.926;2024-01-16T06:59:57;6.10;;;2.10;;
46835;SDS011;32573;51.290;6.926;2024-01-16T07:02:26;6.03;;;2.17;;
46835;SDS011;32573;51.290;6.926;2024-01-16T07:04:54;4.60;;;1.98;;
46835;SDS011;32573;51.290;6.926;2024-01-16T07:07:26;5.43;;;2.10;;
46835;SDS011;32573;51.290;6.926;2024-01-16T07:09:54;4.93;;;2.10;;
46835;SDS011;32573;51.290;6.926;2024-01-16T07:12:22;9.48;;;2.20;;
46835;SDS011;32573;51.290;6.926;2024-01-16T07:14:51;4.65;;;1.90;;
46835;SDS011;32573;51.290;6.926;2024-01-16T07:17:20;4.57;;;2.03;;
46835;SDS011;32573;51.290;6.926;2024-01-16T07:19:49;6.88;;;1.92;;
46835;SDS011;32573;51.290;6.926;2024-01-16T07:22:17;5.30;;;1.77;;
46835;SDS011;32573;51.290;6.926;2024-01-16T07:24:45;4.50;;;1.90;;
46835;SDS011;32573;51.290;6.926;2024-01-16T07:27:14;4.43;;;1.58;;
46835;SDS011;32573;51.290;6.926;2024-01-16T07:29:42;4.38;;;1.65;;
46835;SDS011;32573;51.290;6.926;2024-01-16T07:32:10;4.18;;;1.80;;
46835;SDS011;32573;51.290;6.926;2024-01-16T07:34:40;4.63;;;1.70;;
46835;SDS011;32573;51.290;6.926;2024-01-16T07:37:08;4.70;;;1.60;;
46835;SDS011;32573;51.290;6.926;2024-01-16T07:39:37;5.25;;;1.90;;
46835;SDS011;32573;51.290;6.926;2024-01-16T07:42:05;4.22;;;1.67;;
46835;SDS011;32573;51.290;6.926;2024-01-16T07:44:32;3.60;;;1.73;;
46835;SDS011;32573;51.290;6.926;2024-01-16T07:47:01;5.47;;;1.80;;
46835;SDS011;32573;51.290;6.926;2024-01-16T07:49:30;5.47;;;1.95;;
46835;SDS011;32573;51.290;6.926;2024-01-16T07:52:00;7.25;;;1.70;;
46835;SDS011;32573;51.290;6.926;2024-01-16T07:54:28;3.55;;;1.58;;
46835;SDS011;32573;51.290;6.926;2024-01-16T07:56:57;3.03;;;1.30;;
46835;SDS011;32573;51.290;6.926;2024-01-16T07:59:26;4.30;;;1.60;;
46835;SDS011;32573;51.290;6.926;2024-01-16T08:01:54;4.38;;;1.40;;
46835;SDS011;32573;51.290;6.926;2024-01-16T08:04:23;4.80;;;1.67;;
46835;SDS011;32573;51.290;6.926;2024-01-16T08:06:52;4.80;;;1.30;;
46835;SDS011;32573;51.290;6.926;2024-01-16T08:09:22;4.57;;;1.30;;
46835;SDS011;32573;51.290;6.926;2024-01-16T08:11:51;5.38;;;1.63;;
46835;SDS011;32573;51.290;6.926;2024-01-16T08:14:19;3.50;;;1.60;;
46835;SDS011;32573;51.290;6.926;2024-01-16T08:16:47;5.20;;;1.60;;
46835;SDS011;32573;51.290;6.926;2024-01-16T08:19:16;4.00;;;1.60;;
46835;SDS011;32573;51.290;6.926;2024-01-16T08:21:44;6.35;;;1.45;;
46835;SDS011;32573;51.290;6.926;2024-01-16T08:24:12;5.60;;;1.50;;
46835;SDS011;32573;51.290;6.926;2024-01-16T08:26:42;4.25;;;1.45;;
46835;SDS011;32573;51.290;6.926;2024-01-16T08:29:11;5.22;;;1.40;;
46835;SDS011;32573;51.290;6.926;2024-01-16T08:31:39;7.20;;;1.60;;
46835;SDS011;32573;51.290;6.926;2024-01-16T08:34:07;5.22;;;1.50;;
46835;SDS011;32573;51.290;6.926;2024-01-16T08:36:36;8.00;;;1.95;;
46835;SDS011;32573;51.290;6.926;2024-01-16T08:39:04;4.10;;;1.60;;
46835;SDS011;32573;51.290;6.926;2024-01-16T08:41:32;3.28;;;1.45;;
46835;SDS011;32573;51.290;6.926;2024-01-16T08:44:02;5.28;;;1.80;;
46835;SDS011;32573;51.290;6.926;2024-01-16T08:46:31;2.90;;;1.40;;
46835;SDS011;32573;51.290;6.926;2024-01-16T08:48:59;4.03;;;1.40;;
46835;SDS011;32573;51.290;6.926;2024-01-16T08:51:28;5.50;;;1.83;;
46835;SDS011;32573;51.290;6.926;2024-01-16T08:53:56;4.40;;;1.50;;
46835;SDS011;32573;51.290;6.926;2024-01-16T08:56:24;3.42;;;1.40;;
46835;SDS011;32573;51.290;6.926;2024-01-16T08:58:53;4.85;;;1.75;;
46835;SDS011;32573;51.290;6.926;2024-01-16T09:01:23;3.97;;;1.40;;
46835;SDS011;32573;51.290;6.926;2024-01-16T09:03:51;4.13;;;1.50;;
46835;SDS011;32573;51.290;6.926;2024-01-16T09:06:19;4.82;;;1.55;;
46835;SDS011;32573;51.290;6.926;2024-01-16T09:08:48;4.50;;;1.50;;
46835;SDS011;32573;51.290;6.926;2024-01-16T09:11:17;5.45;;;1.65;;
46835;SDS011;32573;51.290;6.926;2024-01-16T09:13:45;4.32;;;1.42;;
46835;SDS011;32573;51.290;6.926;2024-01-16T09:16:13;7.03;;;1.67;;
46835;SDS011;32573;51.290;6.926;2024-01-16T09:18:43;3.58;;;1.48;;
46835;SDS011;32573;51.290;6.926;2024-01-16T09:21:12;6.05;;;1.77;;
46835;SDS011;32573;51.290;6.926;2024-01-16T09:23:41;3.90;;;1.70;;
46835;SDS011;32573;51.290;6.926;2024-01-16T09:26:09;3.25;;;1.60;;
46835;SDS011;32573;51.290;6.926;2024-01-16T09:28:38;4.22;;;1.63;;
46835;SDS011;32573;51.290;6.926;2024-01-16T09:31:06;2.88;;;1.40;;
46835;SDS011;32573;51.290;6.926;2024-01-16T09:33:35;4.72;;;1.70;;
46835;SDS011;32573;51.290;6.926;2024-01-16T09:36:05;5.03;;;1.85;;
46835;SDS011;32573;51.290;6.926;2024-01-16T09:38:34;4.78;;;1.60;;
46835;SDS011;32573;51.290;6.926;2024-01-16T09:41:02;5.45;;;1.65;;
46835;SDS011;32573;51.290;6.926;2024-01-16T09:43:31;5.68;;;1.58;;
46835;SDS011;32573;51.290;6.926;2024-01-16T09:46:01;5.22;;;1.50;;
46835;SDS011;32573;51.290;6.926;2024-01-16T09:48:31;4.72;;;1.85;;
46835;SDS011;32573;51.290;6.926;2024-01-16T09:51:00;3.03;;;1.45;;
46835;SDS011;32573;51.290;6.926;2024-01-16T09:53:30;3.10;;;1.50;;
46835;SDS011;32573;51.290;6.926;2024-01-16T09:56:00;6.70;;;1.80;;
46835;SDS011;32573;51.290;6.926;2024-01-16T09:58:31;3.60;;;1.73;;
46835;SDS011;32573;51.290;6.926;2024-01-16T10:01:03;3.28;;;1.30;;
46835;SDS011;32573;51.290;6.926;2024-01-16T10:03:33;7.35;;;1.88;;
46835;SDS011;32573;51.290;6.926;2024-01-16T10:06:03;4.93;;;1.50;;
46835;SDS011;32573;51.290;6.926;2024-01-16T10:08:35;4.57;;;1.63;;
46835;SDS011;32573;51.290;6.926;2024-01-16T10:11:04;5.75;;;1.90;;
46835;SDS011;32573;51.290;6.926;2024-01-16T10:13:32;5.93;;;1.70;;
46835;SDS011;32573;51.290;6.926;2024-01-16T10:16:01;4.40;;;1.75;;
46835;SDS011;32573;51.290;6.926;2024-01-16T10:18:30;4.35;;;1.50;;
46835;SDS011;32573;51.290;6.926;2024-01-16T10:21:01;4.75;;;1.63;;
46835;SDS011;32573;51.290;6.926;2024-01-16T10:23:30;3.80;;;1.80;;
46835;SDS011;32573;51.290;6.926;2024-01-16T10:26:08;4.63;;;1.60;;
46835;SDS011;32573;51.290;6.926;2024-01-16T10:28:37;5.70;;;1.60;;
46835;SDS011;32573;51.290;6.926;2024-01-16T10:31:07;5.15;;;1.70;;
46835;SDS011;32573;51.290;6.926;2024-01-16T10:33:37;7.07;;;1.98;;
46835;SDS011;32573;51.290;6.926;2024-01-16T10:36:10;4.95;;;1.50;;
46835;SDS011;32573;51.290;6.926;2024-01-16T10:38:40;4.60;;;1.80;;
46835;SDS011;32573;51.290;6.926;2024-01-16T10:41:12;6.72;;;1.67;;
46835;SDS011;32573;51.290;6.926;2024-01-16T10:43:41;4.38;;;1.65;;
46835;SDS011;32573;51.290;6.926;2024-01-16T10:46:11;4.60;;;2.25;;
46835;SDS011;32573;51.290;6.926;2024-01-16T10:48:41;4.68;;;1.60;;
46835;SDS011;32573;51.290;6.926;2024-01-16T10:51:13;3.95;;;1.58;;
46835;SDS011;32573;51.290;6.926;2024-01-16T10:53:43;4.20;;;1.60;;
46835;SDS011;32573;51.290;6.926;2024-01-16T10:56:14;2.92;;;1.50;;
46835;SDS011;32573;51.290;6.926;2024-01-16T10:58:45;5.15;;;1.70;;
46835;SDS011;32573;51.290;6.926;2024-01-16T11:01:23;3.85;;;1.55;;
46835;SDS011;32573;51.290;6.926;2024-01-16T11:03:53;4.82;;;1.70;;
46835;SDS011;32573;51.290;6.926;2024-01-16T11:06:24;5.78;;;1.80;;
46835;SDS011;32573;51.290;6.926;2024-01-16T11:08:52;4.90;;;1.73;;
46835;SDS011;32573;51.290;6.926;2024-01-16T11:11:24;3.97;;;1.70;;
46835;SDS011;32573;51.290;6.926;2024-01-16T11:13:54;4.78;;;1.80;;
46835;SDS011;32573;51.290;6.926;2024-01-16T11:16:23;6.53;;;1.83;;
46835;SDS011;32573;51.290;6.926;2024-01-16T11:18:52;4.85;;;1.77;;
46835;SDS011;32573;51.290;6.926;2024-01-16T11:21:26;4.15;;;1.65;;
46835;SDS011;32573;51.290;6.926;2024-01-16T11:23:55;3.58;;;1.70;;
46835;SDS011;32573;51.290;6.926;2024-01-16T11:26:28;4.80;;;1.70;;
46835;SDS011;32573;51.290;6.926;2024-01-16T11:28:59;4.65;;;1.85;;
46835;SDS011;32573;51.290;6.926;2024-01-16T11:31:29;3.97;;;1.60;;
46835;SDS011;32573;51.290;6.926;2024-01-16T11:33:59;4.15;;;1.70;;
46835;SDS011;32573;51.290;6.926;2024-01-16T11:36:46;3.85;;;1.80;;
46835;SDS011;32573;51.290;6.926;2024-01-16T11:39:19;4.25;;;1.83;;
46835;SDS011;32573;51.290;6.926;2024-01-16T11:41:50;6.95;;;2.08;;
46835;SDS011;32573;51.290;6.926;2024-01-16T11:44:36;5.65;;;1.92;;
46835;SDS011;32573;51.290;6.926;2024-01-16T11:49:34;5.97;;;2.17;;
46835;SDS011;32573;51.290;6.926;2024-01-16T11:52:03;7.15;;;2.15;;
46835;SDS011;32573;51.290;6.926;2024-01-16T11:54:32;5.63;;;1.83;;
46835;SDS011;32573;51.290;6.926;2024-01-16T12:00:01;4.63;;;1.80;;
46835;SDS011;32573;51.290;6.926;2024-01-16T12:02:48;4.40;;;1.85;;
46835;SDS011;32573;51.290;6.926;2024-01-16T12:05:19;5.72;;;2.03;;
46835;SDS011;32573;51.290;6.926;2024-01-16T12:07:50;7.03;;;1.77;;
46835;SDS011;32573;51.290;6.926;2024-01-16T12:10:21;4.45;;;1.95;;
46835;SDS011;32573;51.290;6.926;2024-01-16T12:12:51;6.18;;;2.20;;
46835;SDS011;32573;51.290;6.926;2024-01-16T12:15:31;4.30;;;1.80;;
46835;SDS011;32573;51.290;6.926;2024-01-16T12:18:00;4.03;;;1.70;;
46835;SDS011;32573;51.290;6.926;2024-01-16T12:20:31;4.75;;;1.90;;
46835;SDS011;32573;51.290;6.926;2024-01-16T12:23:01;4.90;;;1.70;;
46835;SDS011;32573;51.290;6.926;2024-01-16T12:25:30;6.82;;;2.20;;
46835;SDS011;32573;51.290;6.926;2024-01-16T12:28:20;4.93;;;1.77;;
46835;SDS011;32573;51.290;6.926;2024-01-16T12:31:00;4.50;;;1.90;;
46835;SDS011;32573;51.290;6.926;2024-01-16T12:33:30;4.45;;;1.85;;
46835;SDS011;32573;51.290;6.926;2024-01-16T12:36:03;4.50;;;1.60;;
46835;SDS011;32573;51.290;6.926;2024-01-16T12:38:33;6.80;;;2.08;;
46835;SDS011;32573;51.290;6.926;2024-01-16T12:41:02;4.20;;;1.80;;
46835;SDS011;32573;51.290;6.926;2024-01-16T12:43:36;7.27;;;2.20;;
46835;SDS011;32573;51.290;6.926;2024-01-16T12:46:07;4.97;;;1.80;;
46835;SDS011;32573;51.290;6.926;2024-01-16T12:48:35;4.30;;;1.70;;
46835;SDS011;32573;51.290;6.926;2024-01-16T12:51:09;4.57;;;1.70;;
46835;SDS011;32573;51.290;6.926;2024-01-16T12:53:39;4.60;;;1.73;;
46835;SDS011;32573;51.290;6.926;2024-01-16T12:56:07;4.35;;;1.70;;
46835;SDS011;32573;51.290;6.926;2024-01-16T12:58:38;5.72;;;2.10;;
46835;SDS011;32573;51.290;6.926;2024-01-16T13:01:24;4.50;;;2.08;;
46835;SDS011;32573;51.290;6.926;2024-01-16T13:04:06;6.22;;;2.40;;
46835;SDS011;32573;51.290;6.926;2024-01-16T13:06:35;5.03;;;1.75;;
46835;SDS011;32573;51.290;6.926;2024-01-16T13:09:05;3.80;;;1.70;;
46835;SDS011;32573;51.290;6.926;2024-01-16T13:11:47;5.60;;;2.00;;
46835;SDS011;32573;51.290;6.926;2024-01-16T13:14:16;4.10;;;1.75;;
46835;SDS011;32573;51.290;6.926;2024-01-16T13:16:46;6.22;;;1.92;;
46835;SDS011;32573;51.290;6.926;2024-01-16T13:19:16;6.05;;;2.10;;
46835;SDS011;32573;51.290;6.926;2024-01-16T13:21:45;5.93;;;1.83;;
46835;SDS011;32573;51.290;6.926;2024-01-16T13:24:14;5.03;;;1.88;;
46835;SDS011;32573;51.290;6.926;2024-01-16T13:26:44;4.57;;;1.80;;
46835;SDS011;32573;51.290;6.926;2024-01-16T13:29:13;4.03;;;1.75;;
46835;SDS011;32573;51.290;6.926;2024-01-16T13:31:42;4.03;;;1.75;;
46835;SDS011;32573;51.290;6.926;2024-01-16T13:34:12;4.75;;;1.80;;
46835;SDS011;32573;51.290;6.926;2024-01-16T13:36:41;4.47;;;1.90;;
46835;SDS011;32573;51.290;6.926;2024-01-16T13:39:13;4.38;;;1.88;;
46835;SDS011;32573;51.290;6.926;2024-01-16T13:41:42;5.07;;;2.00;;
46835;SDS011;32573;51.290;6.926;2024-01-16T13:44:11;4.60;;;1.90;;
46835;SDS011;32573;51.290;6.926;2024-01-16T13:46:39;4.55;;;1.80;;
46835;SDS011;32573;51.290;6.926;2024-01-16T13:49:28;5.55;;;2.30;;
46835;SDS011;32573;51.290;6.926;2024-01-16T13:51:57;5.45;;;2.17;;
46835;SDS011;32573;51.290;6.926;2024-01-16T13:54:25;5.95;;;2.13;;
46835;SDS011;32573;51.290;6.926;2024-01-16T13:56:53;4.63;;;2.20;;
46835;SDS011;32573;51.290;6.926;2024-01-16T13:59:34;4.75;;;1.85;;
46835;SDS011;32573;51.290;6.926;2024-01-16T14:02:03;6.35;;;2.13;;
46835;SDS011;32573;51.290;6.926;2024-01-16T14:04:34;4.25;;;1.88;;
46835;SDS011;32573;51.290;6.926;2024-01-16T14:07:02;6.57;;;1.90;;
46835;SDS011;32573;51.290;6.926;2024-01-16T14:09:40;6.18;;;2.08;;
46835;SDS011;32573;51.290;6.926;2024-01-16T14:12:12;4.30;;;2.08;;
46835;SDS011;32573;51.290;6.926;2024-01-16T14:14:41;3.92;;;1.80;;
46835;SDS011;32573;51.290;6.926;2024-01-16T14:17:10;4.53;;;1.85;;
46835;SDS011;32573;51.290;6.926;2024-01-16T14:19:40;4.30;;;1.83;;
46835;SDS011;32573;51.290;6.926;2024-01-16T14:22:09;4.10;;;1.85;;
46835;SDS011;32573;51.290;6.926;2024-01-16T14:24:38;4.25;;;1.80;;
46835;SDS011;32573;51.290;6.926;2024-01-16T14:27:06;4.95;;;1.92;;
46835;SDS011;32573;51.290;6.926;2024-01-16T14:29:36;4.72;;;1.90;;
46835;SDS011;32573;51.290;6.926;2024-01-16T14:32:06;4.03;;;1.83;;
46835;SDS011;32573;51.290;6.926;2024-01-16T14:34:35;4.43;;;2.00;;
46835;SDS011;32573;51.290;6.926;2024-01-16T14:37:05;4.40;;;2.08;;
46835;SDS011;32573;51.290;6.926;2024-01-16T14:39:33;3.58;;;1.88;;
46835;SDS011;32573;51.290;6.926;2024-01-16T14:42:03;3.55;;;1.83;;
46835;SDS011;32573;51.290;6.926;2024-01-16T14:44:33;4.97;;;1.75;;
46835;SDS011;32573;51.290;6.926;2024-01-16T14:47:02;3.42;;;1.70;;
46835;SDS011;32573;51.290;6.926;2024-01-16T14:49:31;3.38;;;1.83;;
46835;SDS011;32573;51.290;6.926;2024-01-16T14:52:01;4.95;;;2.40;;
46835;SDS011;32573;51.290;6.926;2024-01-16T14:54:31;4.13;;;1.80;;
46835;SDS011;32573;51.290;6.926;2024-01-16T14:56:59;4.25;;;1.80;;
46835;SDS011;32573;51.290;6.926;2024-01-16T14:59:27;4.43;;;2.20;;
46835;SDS011;32573;51.290;6.926;2024-01-16T15:01:56;5.20;;;1.70;;
46835;SDS011;32573;51.290;6.926;2024-01-16T15:04:24;5.15;;;1.70;;
46835;SDS011;32573;51.290;6.926;2024-01-16T15:06:52;5.60;;;1.80;;